createdAt,value
2023-04-30T00:01:36.194Z,77.87
2023-04-30T00:06:38.006Z,78.08
2023-04-30T00:11:39.939Z,77.80
2023-04-30T00:16:41.848Z,77.80
2023-04-30T00:21:43.596Z,77.89
2023-04-30T00:26:45.306Z,78.05
2023-04-30T00:31:47.142Z,78.15
2023-04-30T00:36:48.941Z,78.22
2023-04-30T00:41:51.007Z,77.87
2023-04-30T00:46:52.657Z,77.98
2023-04-30T00:51:54.527Z,78.21
2023-04-30T00:56:56.473Z,78.08
2023-04-30T01:01:58.136Z,78.40
2023-04-30T01:07:02.191Z,78.80
2023-04-30T01:12:28.846Z,78.87
2023-04-30T01:17:41.702Z,79.29
2023-04-30T01:23:02.620Z,79.51
2023-04-30T01:28:08.309Z,79.38
2023-04-30T01:33:10.404Z,79.78
2023-04-30T01:38:36.583Z,79.56
2023-04-30T01:43:57.423Z,79.56
2023-04-30T01:49:02.314Z,79.65
2023-04-30T01:54:14.300Z,79.50
2023-04-30T01:59:17.315Z,79.35
2023-04-30T02:04:18.976Z,79.31
2023-04-30T02:09:20.687Z,79.90
2023-04-30T02:14:22.661Z,79.22
2023-04-30T02:19:27.294Z,79.08
2023-04-30T02:24:28.932Z,79.39
2023-04-30T02:29:30.659Z,79.59
2023-04-30T02:34:32.375Z,79.85
2023-04-30T02:39:34.319Z,80.87
2023-04-30T02:44:36.096Z,81.00
2023-04-30T02:49:40.023Z,81.29
2023-04-30T02:54:42.847Z,81.66
2023-04-30T02:59:46.352Z,81.75
2023-04-30T03:04:48.712Z,81.92
2023-04-30T03:09:50.431Z,82.05
2023-04-30T03:14:52.283Z,82.31
2023-04-30T03:19:54.266Z,82.21
2023-04-30T03:24:56.244Z,81.65
2023-04-30T03:29:58.165Z,81.32
2023-04-30T03:35:00.119Z,81.13
2023-04-30T03:40:01.889Z,80.86
2023-04-30T03:45:04.267Z,80.35
2023-04-30T03:50:07.360Z,80.41
2023-04-30T03:55:10.378Z,80.52
2023-04-30T04:00:15.552Z,80.21
2023-04-30T04:05:19.243Z,80.18
2023-04-30T04:10:21.406Z,79.77
2023-04-30T04:15:23.464Z,79.77
2023-04-30T04:20:25.500Z,79.63
2023-04-30T04:25:27.444Z,79.54
2023-04-30T04:30:29.538Z,79.16
2023-04-30T04:35:31.489Z,78.66
2023-04-30T04:40:33.202Z,78.27
2023-04-30T04:45:35.906Z,78.28
2023-04-30T04:50:37.854Z,78.00
2023-04-30T04:55:39.738Z,77.54
2023-04-30T05:00:41.554Z,77.48
2023-04-30T05:05:43.435Z,77.59
2023-04-30T05:10:45.312Z,76.82
2023-04-30T05:15:49.488Z,76.36
2023-04-30T05:20:51.350Z,75.65
2023-04-30T05:25:53.297Z,75.50
2023-04-30T05:30:54.969Z,74.97
2023-04-30T05:35:56.667Z,74.38
2023-04-30T05:40:58.531Z,74.43
2023-04-30T05:46:00.444Z,74.25
2023-04-30T05:51:02.296Z,73.90
2023-04-30T05:56:03.991Z,73.46
2023-04-30T06:01:05.749Z,72.79
2023-04-30T06:06:07.755Z,72.20
2023-04-30T06:11:09.532Z,71.27
2023-04-30T06:16:11.615Z,70.05
2023-04-30T06:21:13.451Z,69.62
2023-04-30T06:26:15.373Z,68.44
2023-04-30T06:31:17.145Z,68.04
2023-04-30T06:36:19.659Z,66.62
2023-04-30T06:41:21.624Z,65.52
2023-04-30T06:46:23.589Z,64.39
2023-04-30T06:51:25.397Z,62.55
2023-04-30T06:56:27.113Z,60.05
2023-04-30T07:01:28.864Z,57.01
2023-04-30T07:06:30.673Z,53.80
2023-04-30T07:11:32.493Z,48.34
2023-04-30T07:16:34.364Z,42.58
2023-04-30T07:21:36.185Z,39.09
2023-04-30T07:26:38.040Z,37.76
2023-04-30T07:31:40.282Z,39.08
2023-04-30T07:36:42.199Z,38.17
2023-04-30T07:41:43.846Z,37.27
2023-04-30T07:46:45.576Z,35.96
2023-04-30T07:51:47.757Z,36.96
2023-04-30T07:56:49.380Z,36.44
2023-04-30T08:01:51.812Z,37.34
2023-04-30T08:06:53.573Z,37.94
2023-04-30T08:11:55.689Z,36.47
2023-04-30T08:16:59.467Z,34.26
2023-04-30T08:22:01.604Z,34.73
2023-04-30T08:27:03.754Z,35.54
2023-04-30T08:32:05.891Z,37.33
2023-04-30T08:37:07.922Z,37.41
2023-04-30T08:42:12.781Z,39.57
2023-04-30T08:47:14.971Z,40.26
2023-04-30T08:52:17.084Z,41.19
2023-04-30T08:57:19.073Z,40.58
2023-04-30T09:02:21.067Z,40.44
2023-04-30T09:07:25.396Z,37.96
2023-04-30T09:12:27.068Z,36.39
2023-04-30T09:17:29.965Z,37.14
2023-04-30T09:22:31.916Z,33.72
2023-04-30T09:27:33.946Z,34.97
2023-04-30T09:32:36.018Z,35.23
2023-04-30T09:37:38.741Z,35.10
2023-04-30T09:42:40.880Z,33.48
2023-04-30T09:47:42.810Z,34.90
2023-04-30T09:52:53.518Z,35.75
2023-04-30T09:57:55.630Z,34.55
2023-04-30T10:03:00.090Z,36.32
2023-04-30T10:08:01.963Z,36.10
2023-04-30T10:13:07.560Z,35.80
2023-04-30T10:18:17.517Z,36.35
2023-04-30T10:23:19.789Z,36.89
2023-04-30T10:28:22.112Z,37.83
2023-04-30T10:33:41.948Z,38.04
2023-04-30T10:38:45.908Z,38.92
2023-04-30T10:43:49.642Z,38.70
2023-04-30T10:48:55.719Z,36.29
2023-04-30T10:53:57.582Z,37.56
2023-04-30T10:59:02.387Z,38.53
2023-04-30T11:04:09.672Z,37.52
2023-04-30T11:09:11.683Z,36.17
2023-04-30T11:14:20.806Z,37.44
2023-04-30T11:19:23.138Z,38.05
2023-04-30T11:24:54.057Z,37.31
2023-04-30T11:29:57.611Z,38.24
2023-04-30T11:35:01.956Z,39.03
2023-04-30T11:40:10.866Z,38.82
2023-04-30T11:45:17.461Z,38.35
2023-04-30T11:50:27.414Z,38.28
2023-04-30T11:55:30.038Z,38.94
2023-04-30T12:00:32.033Z,38.95
2023-04-30T12:05:33.654Z,38.35
2023-04-30T12:10:36.495Z,37.18
2023-04-30T12:15:39.660Z,38.16
2023-04-30T12:20:42.093Z,37.58
2023-04-30T12:25:44.076Z,37.52
2023-04-30T12:30:47.317Z,38.52
2023-04-30T12:35:53.817Z,39.45
2023-04-30T12:40:56.572Z,39.19
2023-04-30T12:45:58.712Z,37.84
2023-04-30T12:51:02.954Z,37.57
2023-04-30T12:56:16.316Z,36.86
2023-04-30T13:01:23.966Z,36.36
2023-04-30T13:06:27.197Z,36.20
2023-04-30T13:11:28.981Z,36.66
2023-04-30T13:16:31.873Z,36.25
2023-04-30T13:21:34.005Z,37.73
2023-04-30T13:26:35.932Z,37.24
2023-04-30T13:31:37.721Z,37.01
2023-04-30T13:36:39.471Z,37.82
2023-04-30T13:41:41.136Z,36.81
2023-04-30T13:46:42.888Z,37.89
2023-04-30T13:51:44.710Z,37.86
2023-04-30T13:56:46.480Z,38.27
2023-04-30T14:01:48.138Z,38.14
2023-04-30T14:06:51.069Z,37.06
2023-04-30T14:11:52.785Z,37.45
2023-04-30T14:16:54.958Z,37.58
2023-04-30T14:21:56.793Z,37.90
2023-04-30T14:27:00.221Z,37.91
2023-04-30T14:32:02.205Z,38.19
2023-04-30T14:37:03.988Z,37.11
2023-04-30T14:42:05.830Z,36.86
2023-04-30T14:47:07.818Z,36.82
2023-04-30T14:52:09.488Z,37.16
2023-04-30T14:57:11.610Z,37.53
2023-04-30T15:02:13.445Z,38.59
2023-04-30T15:07:15.328Z,38.45
2023-04-30T15:12:17.016Z,38.71
2023-04-30T15:17:19.071Z,38.12
2023-04-30T15:22:22.538Z,38.68
2023-04-30T15:27:24.265Z,37.76
2023-04-30T15:32:26.093Z,36.78
2023-04-30T15:37:27.895Z,36.42
2023-04-30T15:42:29.568Z,37.16
2023-04-30T15:47:31.614Z,36.98
2023-04-30T15:52:33.229Z,37.01
2023-04-30T15:57:35.340Z,36.60
2023-04-30T16:02:37.237Z,37.30
2023-04-30T16:07:41.359Z,36.21
2023-04-30T16:12:44.737Z,36.34
2023-04-30T16:17:46.367Z,37.05
2023-04-30T16:22:49.657Z,37.66
2023-04-30T16:27:52.487Z,38.44
2023-04-30T16:32:54.352Z,38.20
2023-04-30T16:37:56.217Z,37.87
2023-04-30T16:42:59.649Z,38.44
2023-04-30T16:48:01.402Z,38.40
2023-04-30T16:53:03.239Z,38.86
2023-04-30T16:58:04.902Z,38.72
2023-04-30T17:03:06.782Z,39.18
2023-04-30T17:08:08.574Z,39.24
2023-04-30T17:13:10.289Z,39.19
2023-04-30T17:18:12.964Z,39.45
2023-04-30T17:23:14.776Z,39.69
2023-04-30T17:28:16.697Z,39.90
2023-04-30T17:33:18.474Z,40.58
2023-04-30T17:38:20.240Z,40.75
2023-04-30T17:43:22.024Z,41.01
2023-04-30T17:48:23.739Z,41.46
2023-04-30T17:53:25.758Z,41.58
2023-04-30T17:58:27.466Z,41.91
2023-04-30T18:03:29.657Z,41.60
2023-04-30T18:08:32.684Z,41.37
2023-04-30T18:13:34.430Z,41.81
2023-04-30T18:18:36.174Z,42.31
2023-04-30T18:23:37.919Z,42.53
2023-04-30T18:28:40.002Z,43.50
2023-04-30T18:33:42.098Z,43.64
2023-04-30T18:38:45.718Z,44.70
2023-04-30T18:43:47.613Z,45.93
2023-04-30T18:48:49.788Z,46.32
2023-04-30T18:53:51.602Z,46.90
2023-04-30T18:58:53.509Z,47.93
2023-04-30T19:03:55.421Z,48.25
2023-04-30T19:08:59.683Z,48.92
2023-04-30T19:14:02.186Z,49.40
2023-04-30T19:19:03.964Z,50.11
2023-04-30T19:24:05.972Z,50.45
2023-04-30T19:29:07.939Z,50.82
2023-04-30T19:34:09.688Z,51.26
2023-04-30T19:39:12.630Z,51.88
2023-04-30T19:44:17.584Z,52.48
2023-04-30T19:49:19.254Z,53.16
2023-04-30T19:54:21.062Z,54.28
2023-04-30T19:59:22.928Z,55.31
2023-04-30T20:04:26.385Z,55.69
2023-04-30T20:09:28.295Z,55.91
2023-04-30T20:14:31.029Z,55.97
2023-04-30T20:19:33.662Z,56.51
2023-04-30T20:24:35.378Z,57.41
2023-04-30T20:29:40.090Z,58.13
2023-04-30T20:34:41.773Z,58.55
2023-04-30T20:39:43.727Z,59.01
2023-04-30T20:44:46.596Z,58.79
2023-04-30T20:49:48.367Z,58.76
2023-04-30T20:54:50.719Z,59.11
2023-04-30T20:59:52.383Z,59.21
2023-04-30T21:04:54.066Z,59.72
2023-04-30T21:09:56.939Z,60.11
2023-04-30T21:15:05.839Z,60.58
2023-04-30T21:20:08.457Z,61.35
2023-04-30T21:25:11.990Z,61.76
2023-04-30T21:30:15.416Z,62.69
2023-04-30T21:35:18.103Z,63.63
2023-04-30T21:40:22.169Z,64.79
2023-04-30T21:45:37.165Z,65.58
2023-04-30T21:50:41.449Z,65.96
2023-04-30T21:55:43.285Z,66.38
2023-04-30T22:00:45.464Z,66.65
2023-04-30T22:05:47.532Z,66.86
2023-04-30T22:10:50.186Z,67.42
2023-04-30T22:15:52.849Z,67.45
2023-04-30T22:20:54.632Z,67.71
2023-04-30T22:25:56.430Z,67.66
2023-04-30T22:30:59.647Z,67.62
2023-04-30T22:36:01.990Z,67.82
2023-04-30T22:41:04.508Z,67.91
2023-04-30T22:46:06.315Z,67.99
2023-04-30T22:51:08.108Z,68.77
2023-04-30T22:56:10.576Z,68.74
2023-04-30T23:01:12.352Z,68.99
2023-04-30T23:06:15.628Z,69.30
2023-04-30T23:11:18.695Z,69.78
2023-04-30T23:16:20.443Z,70.08
2023-04-30T23:21:22.185Z,70.46
2023-04-30T23:26:24.446Z,70.00
2023-04-30T23:31:28.143Z,70.19
2023-04-30T23:36:29.869Z,70.10
2023-04-30T23:41:32.234Z,69.58
2023-04-30T23:46:36.304Z,69.83
2023-04-30T23:51:39.081Z,70.16
2023-04-30T23:56:40.872Z,70.75
